Flight Track Log - Related Links

Times and Time Zones

All times are in EDT time to prevent confusion due to time zone crossing. See the AWI3801 flight status page for this flight to view local times or setup timezone preferences in your user account.

Time Position Orientation Groundspeed Altitude Reporting Facility
EDT Latitude Longitude Course Direction KTS MPH feet Rate Location/Type
Wed 02:37:15 PM 39.8579 -75.2072 323° Northwest  Level FlightAware Approximate
Wed 02:38:08 PM 39.8750 -75.2239 82° East 131 151 600  Level FAA TRACON SMA TRACON (SMA)
Wed 02:38:49 PM 39.8789 -75.1875 93° East 158 182 1,900 1,650 Climbing FAA TRACON SMA TRACON (SMA)
Wed 02:39:28 PM 39.8769 -75.1386 105° East 237 273 2,800 1,725 Climbing FAA TRACON SMA TRACON (SMA)
Wed 02:40:09 PM 39.8642 -75.0753 105° East 270 311 4,200 2,370 Climbing FAA TRACON SMA TRACON (SMA)
Wed 02:40:49 PM 39.8503 -75.0075 104° East 280 322 6,000 2,582 Climbing FAA TRACON SMA TRACON (SMA)
Wed 02:41:28 PM 39.8381 -74.9447 104° East 291 335 7,600 2,582 Climbing FAA TRACON SMA TRACON (SMA)
Wed 02:42:08 PM 39.8233 -74.8703 104° East 303 349 9,400 2,550 Climbing FAA TRACON SMA TRACON (SMA)
Wed 02:42:48 PM 39.8086 -74.7958 104° East 308 354 11,000 2,250 Climbing FAA TRACON SMA TRACON (SMA)
Wed 02:43:28 PM 39.7956 -74.7267 87° East 321 369 12,400 2,000 Climbing FAA TRACON SMA TRACON (SMA)
Wed 02:44:09 PM 39.7989 -74.6464 84° East 328 377 13,700 2,000 Climbing FAA TRACON SMA TRACON (SMA)
Wed 02:44:49 PM 39.8058 -74.5656 84° East 326 375 15,100 1,800 Climbing FAA TRACON SMA TRACON (SMA)
Wed 02:45:29 PM 39.8117 -74.4911 84° East 336 387 16,100 1,650 Climbing FAA TRACON SMA TRACON (SMA)
Wed 02:46:09 PM 39.8181 -74.4067 91° East 341 392 17,300 1,200 Climbing FAA TRACON SMA TRACON (SMA)
Wed 02:46:49 PM 39.8169 -74.3483 82° East 349 402 17,700 1,103 Climbing FAA TRACON SMA TRACON (SMA)
Wed 02:48:25 PM 39.8411 -74.1289 74° East 352 405 19,800 1,308 Climbing Boston Center
Wed 02:49:25 PM 39.8703 -73.9997 51° Northeast 358 412 21,100 1,250 Climbing Boston Center
Wed 02:50:25 PM 39.9342 -73.8958 39° Northeast 353 406 22,300 1,150 Climbing Boston Center
Wed 02:51:25 PM 40.0144 -73.8108 40° Northeast 353 406 23,400 1,200 Climbing Boston Center
Wed 02:52:25 PM 40.0903 -73.7283 41° Northeast 353 406 24,700 1,100 Climbing Boston Center
Wed 02:53:25 PM 40.1664 -73.6431 41° Northeast 359 413 25,600 950 Climbing Boston Center
Wed 02:54:25 PM 40.2486 -73.5492 39° Northeast 366 421 26,600 900 Climbing Boston Center
Wed 02:55:25 PM 40.3347 -73.4583 40° Northeast 378 435 27,400 800 Climbing Boston Center
Wed 02:56:25 PM 40.4189 -73.3669 40° Northeast 385 443 28,200 800 Climbing Boston Center
Wed 02:57:25 PM 40.5050 -73.2725 39° Northeast 385 443 29,000 -150 Climbing Boston Center
Wed 02:58:25 PM 40.5911 -73.1806 39° Northeast 390 449 27,900 -1,000 Descending Boston Center
Wed 02:59:25 PM 40.6833 -73.0806 42° Northeast 401 461 27,000 -450 Descending Boston Center
Wed 03:00:25 PM 40.7694 -72.9772 39° Northeast 406 467 27,000  Level Boston Center
Wed 03:01:25 PM 40.8553 -72.8847 42° Northeast 411 473 27,000  Level Boston Center
Wed 03:02:25 PM 40.9411 -72.7836 43° Northeast 411 473 27,000  Level Boston Center
Wed 03:03:25 PM 41.0267 -72.6794 43° Northeast 411 473 27,000  Level Boston Center
Wed 03:04:25 PM 41.1083 -72.5778 43° Northeast 411 473 27,000  Level Boston Center
Wed 03:05:25 PM 41.1917 -72.4731 44° Northeast 405 466 27,000  Level Boston Center
Wed 03:06:25 PM 41.2811 -72.3600 42° Northeast 400 460 27,000  Level Boston Center
Wed 03:07:25 PM 41.3583 -72.2658 44° Northeast 400 460 27,000  Level Boston Center
Wed 03:08:25 PM 41.4414 -72.1603 42° Northeast 400 460 27,000  Level Boston Center
Wed 03:09:25 PM 41.5264 -72.0575 44° Northeast 400 460 27,000  Level Boston Center
Wed 03:10:25 PM 41.6075 -71.9542 44° Northeast 400 460 27,000  Level Boston Center
Wed 03:11:25 PM 41.6903 -71.8481 44° Northeast 400 460 27,000  Level Boston Center
Wed 03:12:25 PM 41.7731 -71.7414 43° Northeast 395 455 27,000  Level Boston Center
Wed 03:13:25 PM 41.8578 -71.6344 42° Northeast 395 455 27,000  Level Boston Center
Wed 03:14:25 PM 41.9486 -71.5244 43° Northeast 401 461 27,000  Level Boston Center
Wed 03:15:25 PM 42.0331 -71.4200 45° Northeast 401 461 27,000  Level Boston Center
Wed 03:16:25 PM 42.1114 -71.3150 44° Northeast 401 461 27,000  Level Boston Center
Wed 03:17:25 PM 42.1936 -71.2072 44° Northeast 401 461 27,000 -950 Level Boston Center
Wed 03:18:25 PM 42.2819 -71.0931 42° Northeast 408 470 25,100 -1,500 Descending Boston Center
Wed 03:19:25 PM 42.3703 -70.9844 32° Northeast 419 482 24,000 -550 Descending Boston Center
Wed 03:20:25 PM 42.4608 -70.9064 32° Northeast 409 471 24,000 -200 Level Boston Center
Wed 03:21:25 PM 42.5392 -70.8394 32° Northeast 404 465 23,600 -1,400 Descending Boston Center
Wed 03:22:25 PM 42.6544 -70.7433 33° Northeast 404 465 21,200 -2,050 Descending Boston Center
Wed 03:23:25 PM 42.7306 -70.6764 32° Northeast 404 465 19,500 -1,950 Descending Boston Center
Wed 03:24:25 PM 42.8458 -70.5767 32° Northeast 404 465 17,300 -2,050 Descending Boston Center
Wed 03:25:25 PM 42.9342 -70.5003 32° Northeast 404 465 15,400 -2,000 Descending Boston Center
Wed 03:26:25 PM 43.0347 -70.4147 32° Northeast 404 465 13,300 -2,000 Descending Boston Center
Wed 03:27:25 PM 43.1147 -70.3467 North 382 440 11,400 -1,350 Descending Boston Center
Wed 03:28:25 PM 43.2186 -70.3231 356° North 342 394 10,600 -1,050 Descending Boston Center
Wed 03:29:25 PM 43.2875 -70.3294 335° Northwest 295 339 9,300 -1,650 Descending Boston Center
Wed 03:30:25 PM 43.3592 -70.3756 335° Northwest 261 300 7,300 -2,300 Descending Boston Center
Wed 03:31:25 PM 43.4139 -70.4108 335° Northwest 251 289 4,700 -1,650 Descending Boston Center
Wed 03:32:25 PM 43.4772 -70.4517 333° Northwest 241 277 4,000 -350 Descending Boston Center
Wed 03:33:25 PM 43.5194 -70.4817 334° Northwest 201 231 4,000 -50 Level Boston Center
Wed 03:34:25 PM 43.5764 -70.5200 336° Northwest 201 231 3,900 -500 Descending Boston Center
Wed 03:35:25 PM 43.6206 -70.5472 336° Northwest 201 231 3,000 -900 Descending Boston Center

Login

Don't have an account? Register now (free) for customized features, flight alerts, and more!